Time,TemperatureF,DewpointF,PressureIn,WindDirection,WindDirectionDegrees,WindSpeedMPH,WindSpeedGustMPH,Humidity,HourlyPrecipIn,Conditions,Clouds,dailyrainin,SoftwareType,DateUTC
2013-10-30 00:00:00,36.6,34.2,30.10,NNW,339,4.0,4.0,91,0.00,,,0.81,Wunderground v.1.15,2013-10-30 05:00:00,
2013-10-30 00:10:00,36.4,34.0,30.11,NW,323,4.0,9.0,91,0.00,,,0.81,Wunderground v.1.15,2013-10-30 05:10:00,
2013-10-30 00:20:00,36.2,33.8,30.11,NW,315,6.0,6.0,91,0.00,,,0.81,Wunderground v.1.15,2013-10-30 05:20:00,
2013-10-30 00:25:00,36.1,33.7,30.10,NNW,341,6.0,7.0,91,0.00,,,0.81,Wunderground v.1.15,2013-10-30 05:25:00,
2013-10-30 00:35:00,35.9,33.8,30.09,North,355,6.0,9.0,92,0.00,,,0.81,Wunderground v.1.15,2013-10-30 05:35:00,
2013-10-30 00:40:00,35.9,33.8,30.09,NNW,344,6.0,6.0,92,0.00,,,0.81,Wunderground v.1.15,2013-10-30 05:40:00,
2013-10-30 00:50:00,35.9,33.5,30.10,NNW,338,3.0,9.0,91,0.00,,,0.81,Wunderground v.1.15,2013-10-30 05:50:00,
2013-10-30 01:00:00,35.7,33.3,30.10,NNW,331,4.0,9.0,91,0.00,,,0.81,Wunderground v.1.15,2013-10-30 06:00:00,
2013-10-30 01:10:00,35.7,33.6,30.10,NNW,338,5.0,5.0,92,0.00,,,0.00,Wunderground v.1.15,2013-10-30 06:10:00,
2013-10-30 01:20:00,35.7,33.6,30.09,NW,320,3.0,9.0,92,0.00,,,0.00,Wunderground v.1.15,2013-10-30 06:20:00,
2013-10-30 01:25:00,35.7,33.6,30.10,NNW,333,3.0,9.0,92,0.00,,,0.00,Wunderground v.1.15,2013-10-30 06:25:00,
2013-10-30 01:35:00,35.6,33.5,30.10,NW,316,5.0,8.0,92,0.00,,,0.00,Wunderground v.1.15,2013-10-30 06:35:00,
2013-10-30 01:40:00,35.5,33.4,30.09,NNW,331,5.0,5.0,92,0.00,,,0.00,Wunderground v.1.15,2013-10-30 06:40:00,
2013-10-30 01:50:00,35.5,33.4,30.09,NNW,330,4.0,9.0,92,0.00,,,0.00,Wunderground v.1.15,2013-10-30 06:50:00,
2013-10-30 02:00:00,35.3,33.2,30.08,NNW,333,4.0,9.0,92,0.00,,,0.00,Wunderground v.1.15,2013-10-30 07:00:00,
2013-10-30 02:10:00,35.3,33.2,30.07,NNW,339,5.0,9.0,92,0.00,,,0.00,Wunderground v.1.15,2013-10-30 07:10:00,
2013-10-30 02:15:00,35.3,33.2,30.07,NNW,336,4.0,9.0,92,0.00,,,0.00,Wunderground v.1.15,2013-10-30 07:15:00,
2013-10-30 02:20:00,35.3,33.2,30.07,North,350,5.0,5.0,92,0.00,,,0.00,Wunderground v.1.15,2013-10-30 07:20:00,
2013-10-30 02:30:00,35.2,33.1,30.06,NNW,344,5.0,5.0,92,0.00,,,0.00,Wunderground v.1.15,2013-10-30 07:30:00,
2013-10-30 02:40:00,35.2,33.1,30.06,NNW,341,5.0,5.0,92,0.00,,,0.00,Wunderground v.1.15,2013-10-30 07:40:00,
2013-10-30 02:50:00,35.1,33.0,30.06,NNW,340,4.0,4.0,92,0.00,,,0.00,Wunderground v.1.15,2013-10-30 07:50:00,
2013-10-30 03:00:00,35.1,33.0,30.05,North,349,5.0,9.0,92,0.00,,,0.00,Wunderground v.1.15,2013-10-30 08:00:00,
2013-10-30 03:05:00,35.1,33.0,30.05,NNW,339,4.0,9.0,92,0.00,,,0.00,Wunderground v.1.15,2013-10-30 08:05:00,
2013-10-30 03:10:00,35.0,32.9,30.05,NNW,337,4.0,9.0,92,0.00,,,0.00,Wunderground v.1.15,2013-10-30 08:10:00,
2013-10-30 03:20:00,35.0,32.9,30.05,NNW,338,4.0,9.0,92,0.00,,,0.00,Wunderground v.1.15,2013-10-30 08:20:00,
2013-10-30 03:30:00,35.0,32.9,30.06,NNW,338,3.0,3.0,92,0.00,,,0.00,Wunderground v.1.15,2013-10-30 08:30:00,
2013-10-30 03:40:00,35.0,32.9,30.06,NNW,338,3.0,3.0,92,0.00,,,0.00,Wunderground v.1.15,2013-10-30 08:40:00,
2013-10-30 03:50:00,35.1,33.0,30.06,NNW,338,2.0,2.0,92,0.00,,,0.00,Wunderground v.1.15,2013-10-30 08:50:00,
2013-10-30 04:00:00,35.2,33.1,30.05,NNW,338,1.0,1.0,92,0.00,,,0.00,Wunderground v.1.15,2013-10-30 09:00:00,
2013-10-30 04:05:00,35.2,33.1,30.05,NNW,338,1.0,9.0,92,0.00,,,0.00,Wunderground v.1.15,2013-10-30 09:05:00,
2013-10-30 04:15:00,35.1,33.0,30.05,NNW,338,1.0,9.0,92,0.00,,,0.00,Wunderground v.1.15,2013-10-30 09:15:00,
2013-10-30 04:20:00,35.2,33.1,30.04,NNW,338,2.0,9.0,92,0.00,,,0.00,Wunderground v.1.15,2013-10-30 09:20:00,
2013-10-30 04:30:00,35.2,33.1,30.03,NNW,338,1.0,9.0,92,0.00,,,0.00,Wunderground v.1.15,2013-10-30 09:30:00,
2013-10-30 04:40:00,35.3,33.2,30.02,NNW,338,1.0,9.0,92,0.00,,,0.00,Wunderground v.1.15,2013-10-30 09:40:00,
2013-10-30 04:50:00,35.3,33.2,30.02,NNW,339,3.0,3.0,92,0.00,,,0.00,Wunderground v.1.15,2013-10-30 09:50:00,
2013-10-30 05:00:00,35.4,33.3,30.01,NNW,340,3.0,9.0,92,0.00,,,0.00,Wunderground v.1.15,2013-10-30 10:00:00,
2013-10-30 05:05:00,35.4,33.3,30.01,NNW,340,3.0,9.0,92,0.00,,,0.00,Wunderground v.1.15,2013-10-30 10:05:00,
2013-10-30 05:10:00,35.4,33.3,30.00,NNW,343,4.0,9.0,92,0.00,,,0.00,Wunderground v.1.15,2013-10-30 10:10:00,
2013-10-30 05:20:00,35.4,33.3,30.02,NNW,343,3.0,9.0,92,0.00,,,0.00,Wunderground v.1.15,2013-10-30 10:20:00,
2013-10-30 05:30:00,35.3,33.2,30.01,NNW,343,3.0,9.0,92,0.00,,,0.00,Wunderground v.1.15,2013-10-30 10:30:00,
2013-10-30 05:40:00,35.4,33.3,30.01,NNW,344,3.0,3.0,92,0.00,,,0.00,Wunderground v.1.15,2013-10-30 10:40:00,
2013-10-30 05:45:00,35.4,33.3,30.01,NNW,344,3.0,5.0,92,0.00,,,0.00,Wunderground v.1.15,2013-10-30 10:45:00,
2013-10-30 05:55:00,35.5,33.4,29.98,NNW,344,3.0,9.0,92,0.00,,,0.00,Wunderground v.1.15,2013-10-30 10:55:00,
2013-10-30 06:00:00,35.4,33.3,29.99,NNW,344,4.0,5.0,92,0.00,,,0.00,Wunderground v.1.15,2013-10-30 11:00:00,
2013-10-30 06:10:00,35.5,33.4,29.99,NNW,348,4.0,4.0,92,0.00,,,0.00,Wunderground v.1.15,2013-10-30 11:10:00,
2013-10-30 06:20:00,35.5,33.4,30.03,NW,325,4.0,7.0,92,0.00,,,0.00,Wunderground v.1.15,2013-10-30 11:20:00,
2013-10-30 06:30:00,35.6,33.5,30.05,West,280,5.0,5.0,92,0.00,,,0.00,Wunderground v.1.15,2013-10-30 11:30:00,
2013-10-30 06:35:00,35.6,33.5,30.05,WNW,294,5.0,7.0,92,0.00,,,0.00,Wunderground v.1.15,2013-10-30 11:35:00,
2013-10-30 06:40:00,35.6,33.5,30.04,WNW,296,3.0,7.0,92,0.00,,,0.01,Wunderground v.1.15,2013-10-30 11:40:00,
2013-10-30 06:50:00,35.6,33.5,30.02,East,90,3.0,3.0,92,0.00,,,0.01,Wunderground v.1.15,2013-10-30 11:50:00,
2013-10-30 07:00:00,35.5,33.4,29.97,East,83,4.0,7.0,92,0.00,,,0.01,Wunderground v.1.15,2013-10-30 12:00:00,
2013-10-30 07:10:00,35.5,33.4,29.97,ESE,109,5.0,7.0,92,0.00,,,0.01,Wunderground v.1.15,2013-10-30 12:10:00,
2013-10-30 07:20:00,35.5,33.4,29.98,East,95,2.0,2.0,92,0.00,,,0.01,Wunderground v.1.15,2013-10-30 12:20:00,
2013-10-30 07:25:00,35.5,33.4,29.96,East,86,1.0,7.0,92,0.00,,,0.01,Wunderground v.1.15,2013-10-30 12:25:00,
2013-10-30 07:35:00,35.5,33.4,29.99,East,86,0.0,7.0,92,0.00,,,0.01,Wunderground v.1.15,2013-10-30 12:35:00,
2013-10-30 07:40:00,35.6,33.5,29.98,East,86,1.0,7.0,92,0.00,,,0.01,Wunderground v.1.15,2013-10-30 12:40:00,
2013-10-30 07:50:00,35.7,33.6,30.01,WSW,257,2.0,7.0,92,0.00,,,0.01,Wunderground v.1.15,2013-10-30 12:50:00,
2013-10-30 08:00:00,35.9,33.8,29.98,North,360,4.0,7.0,92,0.00,,,0.01,Wunderground v.1.15,2013-10-30 13:00:00,
2013-10-30 08:10:00,35.8,33.7,29.99,WNW,295,3.0,3.0,92,0.00,,,0.01,Wunderground v.1.15,2013-10-30 13:10:00,
2013-10-30 08:20:00,35.8,33.7,29.99,NNW,340,1.0,7.0,92,0.00,,,0.01,Wunderground v.1.15,2013-10-30 13:20:00,
2013-10-30 08:30:00,35.9,33.8,30.00,NNW,340,1.0,7.0,92,0.00,,,0.01,Wunderground v.1.15,2013-10-30 13:30:00,
2013-10-30 08:35:00,35.9,33.8,30.00,NNW,340,1.0,7.0,92,0.00,,,0.01,Wunderground v.1.15,2013-10-30 13:35:00,
2013-10-30 08:40:00,35.9,33.8,29.98,NNW,340,1.0,1.0,92,0.00,,,0.01,Wunderground v.1.15,2013-10-30 13:40:00,
2013-10-30 08:50:00,35.9,33.8,30.00,NW,317,2.0,7.0,92,0.00,,,0.01,Wunderground v.1.15,2013-10-30 13:50:00,
2013-10-30 09:00:00,36.1,34.0,30.00,WNW,291,4.0,4.0,92,0.00,,,0.01,Wunderground v.1.15,2013-10-30 14:00:00,
2013-10-30 09:10:00,36.2,34.1,29.98,North,355,3.0,3.0,92,0.00,,,0.01,Wunderground v.1.15,2013-10-30 14:10:00,
2013-10-30 09:15:00,36.2,34.1,30.00,NW,305,2.0,4.0,92,0.00,,,0.01,Wunderground v.1.15,2013-10-30 14:15:00,
2013-10-30 09:20:00,36.3,34.2,30.00,WNW,291,4.0,7.0,92,0.00,,,0.01,Wunderground v.1.15,2013-10-30 14:20:00,
2013-10-30 09:30:00,36.3,34.2,29.98,NNW,338,5.0,5.0,92,0.00,,,0.01,Wunderground v.1.15,2013-10-30 14:30:00,
2013-10-30 09:40:00,36.1,34.0,29.99,WNW,292,5.0,9.0,92,0.00,,,0.01,Wunderground v.1.15,2013-10-30 14:40:00,
2013-10-30 09:50:00,36.1,34.0,29.99,WNW,288,6.0,8.0,92,0.00,,,0.01,Wunderground v.1.15,2013-10-30 14:50:00,
2013-10-30 10:00:00,36.0,33.9,29.98,NNW,327,6.0,6.0,92,0.00,,,0.01,Wunderground v.1.15,2013-10-30 15:00:00,
2013-10-30 10:05:00,35.9,33.8,29.99,WNW,293,4.0,8.0,92,0.00,,,0.01,Wunderground v.1.15,2013-10-30 15:05:00,
2013-10-30 10:15:00,35.9,33.8,29.99,WNW,290,7.0,9.0,92,0.00,,,0.01,Wunderground v.1.15,2013-10-30 15:15:00,
2013-10-30 10:25:00,35.9,33.8,29.98,NW,311,4.0,7.0,92,0.00,,,0.01,Wunderground v.1.15,2013-10-30 15:25:00,
2013-10-30 10:30:00,36.0,33.9,29.99,WNW,282,6.0,7.0,92,0.00,,,0.01,Wunderground v.1.15,2013-10-30 15:30:00,
2013-10-30 10:40:00,36.1,34.0,29.98,WNW,285,7.0,8.0,92,0.00,,,0.01,Wunderground v.1.15,2013-10-30 15:40:00,
2013-10-30 10:50:00,36.2,34.1,29.98,WNW,293,8.0,9.0,92,0.00,,,0.01,Wunderground v.1.15,2013-10-30 15:50:00,
2013-10-30 11:00:00,36.2,34.1,29.98,NW,304,8.0,8.0,92,0.00,,,0.01,Wunderground v.1.15,2013-10-30 16:00:00,
2013-10-30 11:10:00,36.3,34.2,29.98,NW,307,5.0,7.0,92,0.00,,,0.01,Wunderground v.1.15,2013-10-30 16:10:00,
2013-10-30 11:15:00,36.3,34.2,29.98,WNW,301,6.0,8.0,92,0.00,,,0.01,Wunderground v.1.15,2013-10-30 16:15:00,
2013-10-30 11:25:00,36.4,34.3,29.98,West,272,8.0,9.0,92,0.00,,,0.01,Wunderground v.1.15,2013-10-30 16:25:00,
2013-10-30 11:30:00,36.4,34.3,29.99,West,276,7.0,7.0,92,0.00,,,0.01,Wunderground v.1.15,2013-10-30 16:30:00,
2013-10-30 11:40:00,36.5,34.4,29.99,WNW,294,5.0,5.0,92,0.00,,,0.01,Wunderground v.1.15,2013-10-30 16:40:00,
2013-10-30 11:50:00,36.6,34.5,29.98,WNW,294,4.0,7.0,92,0.00,,,0.01,Wunderground v.1.15,2013-10-30 16:50:00,
2013-10-30 12:00:00,36.9,34.8,29.98,WNW,298,3.0,5.0,92,0.00,,,0.01,Wunderground v.1.15,2013-10-30 17:00:00,
2013-10-30 12:05:00,36.9,34.8,29.99,NW,304,4.0,8.0,92,0.00,,,0.01,Wunderground v.1.15,2013-10-30 17:05:00,
2013-10-30 12:15:00,37.0,34.9,29.99,WNW,296,4.0,8.0,92,0.00,,,0.01,Wunderground v.1.15,2013-10-30 17:15:00,
2013-10-30 12:20:00,37.0,34.9,29.99,WNW,300,5.0,8.0,92,0.00,,,0.01,Wunderground v.1.15,2013-10-30 17:20:00,
2013-10-30 12:30:00,36.8,34.7,29.98,WNW,301,4.0,8.0,92,0.00,,,0.01,Wunderground v.1.15,2013-10-30 17:30:00,
2013-10-30 12:40:00,37.0,34.9,29.96,WNW,301,4.0,4.0,92,0.00,,,0.01,Wunderground v.1.15,2013-10-30 17:40:00,
2013-10-30 12:50:00,37.0,34.9,29.95,WNW,301,5.0,5.0,92,0.00,,,0.01,Wunderground v.1.15,2013-10-30 17:50:00,
2013-10-30 13:00:00,37.0,34.9,29.95,WNW,301,4.0,4.0,92,0.00,,,0.01,Wunderground v.1.15,2013-10-30 18:00:00,
2013-10-30 13:10:00,37.0,34.9,29.96,WNW,295,4.0,8.0,92,0.00,,,0.01,Wunderground v.1.15,2013-10-30 18:10:00,
2013-10-30 13:20:00,37.0,34.9,29.95,WNW,294,3.0,3.0,92,0.00,,,0.01,Wunderground v.1.15,2013-10-30 18:20:00,
2013-10-30 13:30:00,37.3,35.2,29.94,WNW,295,3.0,3.0,92,0.00,,,0.01,Wunderground v.1.15,2013-10-30 18:30:00,
2013-10-30 13:40:00,37.5,35.4,29.93,WNW,296,3.0,8.0,92,0.00,,,0.01,Wunderground v.1.15,2013-10-30 18:40:00,
2013-10-30 13:50:00,37.9,35.8,29.92,WNW,296,4.0,4.0,92,0.00,,,0.01,Wunderground v.1.15,2013-10-30 18:50:00,
2013-10-30 14:00:00,38.4,36.3,29.92,WNW,296,3.0,3.0,92,0.00,,,0.01,Wunderground v.1.15,2013-10-30 19:00:00,
2013-10-30 14:05:00,38.5,36.4,29.91,WNW,296,3.0,4.0,92,0.00,,,0.01,Wunderground v.1.15,2013-10-30 19:05:00,
2013-10-30 14:10:00,38.5,36.4,29.91,WNW,296,3.0,8.0,92,0.00,,,0.01,Wunderground v.1.15,2013-10-30 19:10:00,
2013-10-30 14:20:00,38.8,36.7,29.91,WNW,286,6.0,8.0,92,0.00,,,0.01,Wunderground v.1.15,2013-10-30 19:20:00,
2013-10-30 14:30:00,39.0,36.9,29.90,NW,304,6.0,6.0,92,0.00,,,0.01,Wunderground v.1.15,2013-10-30 19:30:00,
2013-10-30 14:40:00,39.1,37.0,29.90,NW,308,5.0,8.0,92,0.00,,,0.01,Wunderground v.1.15,2013-10-30 19:40:00,
2013-10-30 14:45:00,39.3,37.2,29.90,WNW,290,5.0,8.0,92,0.00,,,0.01,Wunderground v.1.15,2013-10-30 19:45:00,
2013-10-30 14:55:00,39.5,37.4,29.90,West,273,6.0,8.0,92,0.00,,,0.01,Wunderground v.1.15,2013-10-30 19:55:00,
2013-10-30 15:00:00,39.4,37.3,29.89,WNW,287,6.0,10.0,92,0.00,,,0.01,Wunderground v.1.15,2013-10-30 20:00:00,
2013-10-30 15:10:00,39.5,37.4,29.89,West,277,7.0,7.0,92,0.00,,,0.01,Wunderground v.1.15,2013-10-30 20:10:00,
2013-10-30 15:20:00,39.8,37.4,29.89,WNW,286,6.0,8.0,91,0.00,,,0.01,Wunderground v.1.15,2013-10-30 20:20:00,
2013-10-30 15:30:00,39.9,37.5,29.89,West,268,7.0,8.0,91,0.00,,,0.01,Wunderground v.1.15,2013-10-30 20:30:00,
2013-10-30 15:35:00,39.8,37.4,29.89,West,265,8.0,8.0,91,0.00,,,0.01,Wunderground v.1.15,2013-10-30 20:35:00,
2013-10-30 15:45:00,40.0,37.6,29.89,West,279,8.0,10.0,91,0.00,,,0.01,Wunderground v.1.15,2013-10-30 20:45:00,
2013-10-30 15:55:00,40.1,37.7,29.88,WNW,288,8.0,9.0,91,0.00,,,0.01,Wunderground v.1.15,2013-10-30 20:55:00,
2013-10-30 16:00:00,40.1,37.7,29.88,WNW,284,8.0,8.0,91,0.00,,,0.01,Wunderground v.1.15,2013-10-30 21:00:00,
2013-10-30 16:10:00,40.4,37.7,29.88,West,273,8.0,8.0,90,0.00,,,0.01,Wunderground v.1.15,2013-10-30 21:10:00,
2013-10-30 16:15:00,40.3,37.6,29.88,WSW,254,8.0,8.0,90,0.00,,,0.01,Wunderground v.1.15,2013-10-30 21:15:00,
2013-10-30 16:25:00,40.4,37.4,29.88,West,275,8.0,9.0,89,0.00,,,0.01,Wunderground v.1.15,2013-10-30 21:25:00,
2013-10-30 16:35:00,40.4,37.4,29.88,West,267,8.0,10.0,89,0.00,,,0.01,Wunderground v.1.15,2013-10-30 21:35:00,
2013-10-30 16:40:00,40.5,37.5,29.88,West,281,8.0,8.0,89,0.00,,,0.01,Wunderground v.1.15,2013-10-30 21:40:00,
2013-10-30 16:50:00,40.5,37.5,29.87,WNW,286,7.0,7.0,89,0.00,,,0.01,Wunderground v.1.15,2013-10-30 21:50:00,
2013-10-30 17:00:00,40.6,37.6,29.87,West,265,6.0,8.0,89,0.00,,,0.01,Wunderground v.1.15,2013-10-30 22:00:00,
2013-10-30 17:10:00,40.9,37.9,29.87,West,281,5.0,5.0,89,0.00,,,0.01,Wunderground v.1.15,2013-10-30 22:10:00,
2013-10-30 17:15:00,40.8,37.8,29.88,West,281,4.0,8.0,89,0.00,,,0.01,Wunderground v.1.15,2013-10-30 22:15:00,
2013-10-30 17:20:00,40.9,37.9,29.88,West,281,3.0,3.0,89,0.00,,,0.01,Wunderground v.1.15,2013-10-30 22:20:00,
2013-10-30 17:40:00,41.0,38.0,29.87,West,281,1.0,8.0,89,0.00,,,0.01,Wunderground v.1.15,2013-10-30 22:40:00,
2013-10-30 17:50:00,41.5,38.5,29.87,West,281,1.0,1.0,89,0.00,,,0.01,Wunderground v.1.15,2013-10-30 22:50:00,
2013-10-30 18:00:00,41.8,38.5,29.87,West,281,1.0,1.0,88,0.00,,,0.01,Wunderground v.1.15,2013-10-30 23:00:00,
2013-10-30 18:10:00,41.8,38.5,29.86,West,281,0.0,3.0,88,0.00,,,0.01,Wunderground v.1.15,2013-10-30 23:10:00,
2013-10-30 18:35:00,39.8,36.2,29.86,West,281,0.0,3.0,87,0.00,,,0.01,Wunderground v.1.15,2013-10-30 23:35:00,
2013-10-30 18:40:00,39.1,35.3,29.86,West,281,0.0,3.0,86,0.00,,,0.01,Wunderground v.1.15,2013-10-30 23:40:00,
2013-10-30 18:45:00,38.8,35.3,29.86,West,281,0.0,3.0,87,0.00,,,0.01,Wunderground v.1.15,2013-10-30 23:45:00,
2013-10-30 18:55:00,38.0,34.5,29.86,West,281,0.0,3.0,87,0.00,,,0.01,Wunderground v.1.15,2013-10-30 23:55:00,
2013-10-30 19:05:00,37.2,33.7,29.86,West,281,0.0,3.0,87,0.00,,,0.01,Wunderground v.1.15,2013-10-31 00:05:00,
2013-10-30 19:10:00,36.8,33.3,29.86,West,281,0.0,3.0,87,0.00,,,0.01,Wunderground v.1.15,2013-10-31 00:10:00,
2013-10-30 19:20:00,35.6,32.1,29.87,West,281,0.0,3.0,87,0.00,,,0.01,Wunderground v.1.15,2013-10-31 00:20:00,
2013-10-30 19:30:00,35.5,32.6,29.87,West,281,0.0,3.0,89,0.00,,,0.01,Wunderground v.1.15,2013-10-31 00:30:00,
2013-10-30 19:40:00,35.7,32.8,29.87,West,281,0.0,3.0,89,0.00,,,0.01,Wunderground v.1.15,2013-10-31 00:40:00,
2013-10-30 19:50:00,36.2,33.5,29.87,West,281,0.0,3.0,90,0.00,,,0.01,Wunderground v.1.15,2013-10-31 00:50:00,
2013-10-30 20:00:00,35.4,32.2,29.86,West,281,1.0,1.0,88,0.00,,,0.01,Wunderground v.1.15,2013-10-31 01:00:00,
2013-10-30 20:10:00,34.2,31.0,29.87,West,281,0.0,3.0,88,0.00,,,0.01,Wunderground v.1.15,2013-10-31 01:10:00,
2013-10-30 20:20:00,34.6,32.0,29.87,West,281,0.0,3.0,90,0.00,,,0.01,Wunderground v.1.15,2013-10-31 01:20:00,
2013-10-30 20:30:00,35.1,32.5,29.87,West,281,0.0,3.0,90,0.00,,,0.01,Wunderground v.1.15,2013-10-31 01:30:00,
2013-10-30 20:35:00,34.6,31.7,29.87,West,281,0.0,3.0,89,0.00,,,0.01,Wunderground v.1.15,2013-10-31 01:35:00,
2013-10-30 20:40:00,34.0,31.1,29.87,West,281,1.0,1.0,89,0.00,,,0.01,Wunderground v.1.15,2013-10-31 01:40:00,
2013-10-30 20:50:00,34.3,31.7,29.87,West,281,0.0,3.0,90,0.00,,,0.01,Wunderground v.1.15,2013-10-31 01:50:00,
2013-10-30 21:00:00,34.3,31.7,29.87,West,281,0.0,3.0,90,0.00,,,0.01,Wunderground v.1.15,2013-10-31 02:00:00,
2013-10-30 21:10:00,34.0,31.4,29.87,West,281,0.0,3.0,90,0.00,,,0.01,Wunderground v.1.15,2013-10-31 02:10:00,
2013-10-30 21:15:00,33.6,31.0,29.87,West,281,0.0,3.0,90,0.00,,,0.01,Wunderground v.1.15,2013-10-31 02:15:00,
2013-10-30 21:25:00,33.0,30.1,29.86,West,281,0.0,3.0,89,0.00,,,0.01,Wunderground v.1.15,2013-10-31 02:25:00,
2013-10-30 21:30:00,32.9,30.3,29.86,West,281,0.0,3.0,90,0.00,,,0.01,Wunderground v.1.15,2013-10-31 02:30:00,
2013-10-30 21:40:00,33.2,30.6,29.87,West,281,0.0,3.0,90,0.00,,,0.01,Wunderground v.1.15,2013-10-31 02:40:00,
2013-10-30 21:50:00,33.5,30.9,29.87,West,281,1.0,1.0,90,0.00,,,0.01,Wunderground v.1.15,2013-10-31 02:50:00,
2013-10-30 22:00:00,33.8,31.5,29.86,West,281,0.0,3.0,91,0.00,,,0.01,Wunderground v.1.15,2013-10-31 03:00:00,
2013-10-30 22:05:00,33.8,31.2,29.87,West,281,0.0,3.0,90,0.00,,,0.01,Wunderground v.1.15,2013-10-31 03:05:00,
2013-10-30 22:15:00,34.2,31.8,29.87,West,281,0.0,3.0,91,0.00,,,0.01,Wunderground v.1.15,2013-10-31 03:15:00,
2013-10-30 22:25:00,35.4,33.0,29.86,West,281,0.0,3.0,91,0.00,,,0.01,Wunderground v.1.15,2013-10-31 03:25:00,
2013-10-30 22:30:00,35.9,33.5,29.86,West,281,1.0,1.0,91,0.00,,,0.01,Wunderground v.1.15,2013-10-31 03:30:00,
2013-10-30 22:40:00,36.5,34.1,29.86,West,281,1.0,1.0,91,0.00,,,0.01,Wunderground v.1.15,2013-10-31 03:40:00,
2013-10-30 22:50:00,36.6,34.2,29.84,West,281,1.0,1.0,91,0.00,,,0.01,Wunderground v.1.15,2013-10-31 03:50:00,
2013-10-30 23:00:00,36.2,33.8,29.83,West,281,0.0,3.0,91,0.00,,,0.01,Wunderground v.1.15,2013-10-31 04:00:00,
2013-10-30 23:05:00,36.0,33.6,29.83,West,281,0.0,3.0,91,0.00,,,0.01,Wunderground v.1.15,2013-10-31 04:05:00,
2013-10-30 23:10:00,35.6,33.0,29.83,West,281,0.0,3.0,90,0.00,,,0.01,Wunderground v.1.15,2013-10-31 04:10:00,
2013-10-30 23:15:00,35.3,32.7,29.83,West,281,0.0,3.0,90,0.00,,,0.01,Wunderground v.1.15,2013-10-31 04:15:00,
2013-10-30 23:25:00,34.6,32.0,29.83,West,281,0.0,3.0,90,0.00,,,0.01,Wunderground v.1.15,2013-10-31 04:25:00,
2013-10-30 23:30:00,34.3,31.7,29.82,West,281,0.0,3.0,90,0.00,,,0.01,Wunderground v.1.15,2013-10-31 04:30:00,
2013-10-30 23:40:00,33.3,30.7,29.82,West,281,0.0,3.0,90,0.00,,,0.01,Wunderground v.1.15,2013-10-31 04:40:00,
2013-10-30 23:45:00,33.0,30.4,29.81,West,281,0.0,3.0,90,0.00,,,0.01,Wunderground v.1.15,2013-10-31 04:45:00,
2013-10-30 23:50:00,32.9,30.3,29.82,West,281,0.0,3.0,90,0.00,,,0.01,Wunderground v.1.15,2013-10-31 04:50:00,